createdAt,value
2019-04-23T00:01:29.878Z,4.60
2019-04-23T00:03:51.927Z,4.80
2019-04-23T00:06:47.738Z,4.40
2019-04-23T00:09:07.421Z,4.63
2019-04-23T00:13:57.756Z,4.83
2019-04-23T00:16:30.221Z,4.43
2019-04-23T00:18:55.848Z,4.45
2019-04-23T00:21:54.327Z,4.40
2019-04-23T00:25:06.255Z,4.50
2019-04-23T00:27:23.891Z,4.87
2019-04-23T00:29:47.961Z,4.30
2019-04-23T00:32:15.155Z,4.97
2019-04-23T00:34:47.348Z,5.25
2019-04-23T00:37:24.289Z,4.80
2019-04-23T00:39:49.900Z,5.13
2019-04-23T00:42:15.447Z,5.17
2019-04-23T00:44:49.802Z,5.20
2019-04-23T00:47:21.750Z,4.87
2019-04-23T00:49:56.591Z,4.90
2019-04-23T00:52:24.350Z,5.17
2019-04-23T00:54:51.904Z,5.30
2019-04-23T00:57:24.003Z,5.00
2019-04-23T00:59:53.601Z,5.13
2019-04-23T01:02:16.723Z,5.03
2019-04-23T01:04:55.841Z,4.47
2019-04-23T01:07:20.086Z,4.10
2019-04-23T01:12:31.983Z,4.87
2019-04-23T01:14:56.297Z,4.57
2019-04-23T01:17:35.127Z,5.60
2019-04-23T01:20:01.726Z,5.40
2019-04-23T01:22:12.561Z,4.23
2019-04-23T01:25:04.450Z,5.03
2019-04-23T01:28:15.979Z,4.40
2019-04-23T01:30:49.233Z,4.60
2019-04-23T01:33:25.531Z,4.77
2019-04-23T01:36:01.010Z,4.97
2019-04-23T01:38:21.782Z,4.50
2019-04-23T01:40:45.882Z,4.43
2019-04-23T01:43:16.267Z,4.53
2019-04-23T01:45:44.074Z,4.73
2019-04-23T01:48:18.477Z,4.20
2019-04-23T01:50:54.840Z,5.17
2019-04-23T01:55:52.705Z,4.13
2019-04-23T01:58:31.899Z,4.13
2019-04-23T02:00:56.312Z,4.20
2019-04-23T02:03:22.654Z,4.23
2019-04-23T02:05:55.734Z,4.63
2019-04-23T02:08:20.877Z,4.57
2019-04-23T02:10:56.317Z,4.30
2019-04-23T02:13:33.871Z,4.63
2019-04-23T02:15:51.761Z,4.20
2019-04-23T02:18:43.942Z,4.43
2019-04-23T02:21:02.359Z,4.30
2019-04-23T02:23:36.935Z,4.60
2019-04-23T02:26:09.521Z,4.97
2019-04-23T02:31:44.593Z,4.50
2019-04-23T02:34:08.810Z,4.27
2019-04-23T02:36:31.727Z,4.90
2019-04-23T02:43:51.009Z,5.10
2019-04-23T02:48:53.601Z,5.20
2019-04-23T02:51:26.812Z,4.50
2019-04-23T02:56:31.192Z,5.37
2019-04-23T02:58:55.013Z,4.30
2019-04-23T03:01:25.724Z,4.80
2019-04-23T03:04:10.488Z,4.90
2019-04-23T03:06:24.284Z,4.47
2019-04-23T03:08:49.239Z,4.47
2019-04-23T03:11:25.671Z,4.27
2019-04-23T03:14:12.059Z,4.50
2019-04-23T03:19:37.789Z,5.33
2019-04-23T03:22:30.206Z,4.87
2019-04-23T03:25:05.299Z,4.93
2019-04-23T03:30:16.226Z,4.90
2019-04-23T03:40:13.932Z,4.87
2019-04-23T03:45:17.281Z,5.43
2019-04-23T03:55:12.310Z,4.67
2019-04-23T04:00:24.869Z,5.03
2019-04-23T04:02:48.628Z,5.07
2019-04-23T04:05:10.854Z,4.40
2019-04-23T04:07:49.387Z,4.30
2019-04-23T04:10:09.096Z,4.90
2019-04-23T04:12:39.950Z,4.77
2019-04-23T04:17:53.919Z,4.33
2019-04-23T04:23:15.357Z,4.43
2019-04-23T04:27:58.176Z,4.67
2019-04-23T04:30:21.874Z,4.23
2019-04-23T04:32:56.914Z,4.00
2019-04-23T04:37:55.603Z,4.10
2019-04-23T04:40:29.803Z,4.43
2019-04-23T04:43:02.165Z,4.27
2019-04-23T04:45:34.497Z,3.83
2019-04-23T04:47:44.800Z,4.10
2019-04-23T04:50:19.412Z,4.10
2019-04-23T04:53:10.283Z,4.60
2019-04-23T04:55:23.722Z,4.37
2019-04-23T04:57:52.237Z,4.07
2019-04-23T05:07:54.320Z,4.43
2019-04-23T05:10:49.702Z,5.23
2019-04-23T05:13:06.239Z,4.97
2019-04-23T05:15:23.512Z,4.90
2019-04-23T05:18:41.862Z,5.70
2019-04-23T05:21:01.906Z,4.83
2019-04-23T05:26:23.959Z,4.60
2019-04-23T05:33:59.931Z,4.97
2019-04-23T05:41:29.534Z,5.17
2019-04-23T05:44:05.164Z,5.70
2019-04-23T05:46:33.367Z,5.40
2019-04-23T05:49:09.624Z,5.43
2019-04-23T05:54:08.416Z,4.77
2019-04-23T05:56:38.306Z,5.20
2019-04-23T05:59:14.652Z,4.50
2019-04-23T06:01:55.723Z,4.30
2019-04-23T06:04:24.602Z,5.07
2019-04-23T06:09:59.209Z,4.53
2019-04-23T06:17:47.454Z,4.47
2019-04-23T06:20:20.066Z,4.70
2019-04-23T06:22:49.282Z,4.80
2019-04-23T06:25:40.015Z,5.77
2019-04-23T06:27:57.538Z,5.67
2019-04-23T06:30:27.358Z,6.93
2019-04-23T06:32:53.607Z,9.73
2019-04-23T06:35:27.081Z,7.10
2019-04-23T06:38:20.247Z,5.85
2019-04-23T06:40:23.642Z,5.47
2019-04-23T06:43:04.787Z,5.65
2019-04-23T06:45:32.164Z,4.67
2019-04-23T06:48:11.468Z,5.47
2019-04-23T06:50:37.029Z,5.40
2019-04-23T06:52:59.498Z,5.30
2019-04-23T06:55:37.369Z,5.43
2019-04-23T06:58:12.348Z,5.40
2019-04-23T07:00:41.259Z,5.53
2019-04-23T07:03:18.182Z,5.30
2019-04-23T07:06:13.557Z,5.17
2019-04-23T07:08:38.528Z,4.93
2019-04-23T07:10:57.916Z,4.77
2019-04-23T07:13:31.844Z,5.43
2019-04-23T07:15:51.987Z,5.80
2019-04-23T07:18:23.803Z,5.40
2019-04-23T07:21:09.830Z,4.90
2019-04-23T07:23:41.656Z,5.10
2019-04-23T07:26:18.939Z,5.17
2019-04-23T07:28:43.831Z,5.05
2019-04-23T07:31:18.958Z,5.08
2019-04-23T07:33:44.229Z,4.72
2019-04-23T07:36:15.624Z,5.35
2019-04-23T07:38:54.713Z,4.20
2019-04-23T07:41:56.034Z,4.97
2019-04-23T07:44:38.374Z,4.62
2019-04-23T07:47:35.965Z,4.83
2019-04-23T07:50:03.233Z,5.08
2019-04-23T07:52:33.723Z,5.20
2019-04-23T07:55:02.942Z,5.47
2019-04-23T07:57:40.069Z,4.97
2019-04-23T08:00:00.860Z,5.00
2019-04-23T08:02:27.414Z,4.83
2019-04-23T08:05:11.291Z,4.22
2019-04-23T08:07:28.271Z,4.65
2019-04-23T08:10:06.235Z,4.72
2019-04-23T08:12:31.964Z,4.30
2019-04-23T08:15:00.010Z,4.35
2019-04-23T08:17:29.174Z,5.20
2019-04-23T08:20:03.188Z,9.50
2019-04-23T08:22:35.052Z,9.80
2019-04-23T08:28:13.520Z,5.28
2019-04-23T08:30:43.444Z,4.42
2019-04-23T08:33:11.015Z,4.33
2019-04-23T08:35:48.695Z,4.55
2019-04-23T08:38:18.585Z,4.72
2019-04-23T08:40:55.661Z,4.40
2019-04-23T08:43:32.383Z,4.83
2019-04-23T08:45:58.198Z,4.03
2019-04-23T08:50:57.782Z,4.00
2019-04-23T08:53:37.578Z,3.55
2019-04-23T08:56:15.551Z,3.75
2019-04-23T08:58:32.480Z,4.78
2019-04-23T09:06:05.339Z,4.22
2019-04-23T09:08:35.250Z,5.05
2019-04-23T09:11:19.996Z,3.98
2019-04-23T09:16:05.163Z,3.72
2019-04-23T09:18:32.642Z,3.52
2019-04-23T09:21:07.594Z,3.20
2019-04-23T09:23:40.361Z,3.42
2019-04-23T09:26:02.407Z,3.40
2019-04-23T09:34:09.786Z,3.65
2019-04-23T09:37:04.676Z,3.92
2019-04-23T09:39:51.317Z,3.67
2019-04-23T09:42:38.893Z,3.10
2019-04-23T09:45:22.745Z,3.90
2019-04-23T09:50:38.176Z,3.33
2019-04-23T09:53:09.646Z,3.15
2019-04-23T09:55:40.230Z,3.33
2019-04-23T10:02:59.594Z,3.60
2019-04-23T10:05:28.112Z,3.20
2019-04-23T10:07:54.760Z,3.12
2019-04-23T10:10:16.353Z,3.15
2019-04-23T10:12:46.050Z,3.15
2019-04-23T10:15:22.735Z,2.95
2019-04-23T10:17:46.431Z,2.90
2019-04-23T10:20:16.409Z,3.05
2019-04-23T10:22:46.254Z,3.22
2019-04-23T10:25:17.063Z,3.65
2019-04-23T10:27:52.947Z,2.95
2019-04-23T10:30:17.795Z,3.08
2019-04-23T10:32:47.581Z,2.98
2019-04-23T10:35:28.621Z,2.98
2019-04-23T10:37:54.692Z,3.08
2019-04-23T10:40:26.190Z,3.05
2019-04-23T10:42:51.730Z,3.02
2019-04-23T10:45:59.059Z,2.75
2019-04-23T10:49:39.074Z,3.27
2019-04-23T10:52:04.839Z,2.95
2019-04-23T10:54:39.946Z,2.80
2019-04-23T10:57:13.753Z,3.08
2019-04-23T10:59:38.949Z,3.17
2019-04-23T11:02:24.078Z,3.35
2019-04-23T11:07:20.537Z,2.98
2019-04-23T11:09:52.364Z,3.00
2019-04-23T11:12:32.909Z,3.00
2019-04-23T11:17:35.643Z,3.10
2019-04-23T11:19:56.987Z,4.08
2019-04-23T11:24:59.470Z,2.92
2019-04-23T11:27:27.992Z,3.75
2019-04-23T11:30:00.273Z,3.47
2019-04-23T11:35:14.315Z,3.77
2019-04-23T11:37:53.319Z,3.67
2019-04-23T11:40:01.093Z,3.37
2019-04-23T11:42:29.736Z,3.77
2019-04-23T11:45:10.060Z,3.30
2019-04-23T11:50:25.926Z,2.90
2019-04-23T11:52:39.553Z,3.40
2019-04-23T11:55:03.156Z,3.00
2019-04-23T11:57:40.755Z,3.62
2019-04-23T11:59:59.394Z,4.08
2019-04-23T12:02:49.885Z,3.58
2019-04-23T12:05:44.258Z,4.40
2019-04-23T12:08:31.942Z,3.30
2019-04-23T12:11:39.807Z,3.40
2019-04-23T12:14:02.533Z,3.10
2019-04-23T12:16:31.724Z,3.20
2019-04-23T12:19:28.661Z,3.20
2019-04-23T12:24:06.302Z,3.10
2019-04-23T12:26:35.530Z,3.22
2019-04-23T12:29:09.922Z,3.25
2019-04-23T12:31:38.018Z,3.20
2019-04-23T12:34:05.350Z,3.37
2019-04-23T12:36:43.773Z,3.67
2019-04-23T12:39:23.840Z,3.47
2019-04-23T12:44:16.213Z,3.00
2019-04-23T12:46:59.754Z,2.98
2019-04-23T12:49:47.933Z,3.17
2019-04-23T12:52:02.742Z,2.60
2019-04-23T12:54:51.096Z,3.05
2019-04-23T12:59:36.707Z,2.85
2019-04-23T13:02:15.510Z,3.05
2019-04-23T13:04:42.182Z,3.05
2019-04-23T13:07:19.227Z,2.72
2019-04-23T13:09:55.170Z,3.27
2019-04-23T13:12:29.279Z,2.90
2019-04-23T13:14:57.328Z,2.92
2019-04-23T13:17:44.499Z,3.42
2019-04-23T13:20:04.028Z,3.08
2019-04-23T13:22:30.491Z,2.52
2019-04-23T13:25:23.905Z,3.33
2019-04-23T13:30:31.609Z,3.10
2019-04-23T13:33:00.516Z,3.25
2019-04-23T13:35:38.342Z,3.12
2019-04-23T13:37:59.332Z,2.75
2019-04-23T13:40:29.265Z,2.83
2019-04-23T13:45:53.350Z,3.00
2019-04-23T13:50:42.070Z,3.15
2019-04-23T13:55:31.228Z,3.20
2019-04-23T13:58:07.490Z,2.70
2019-04-23T14:03:27.797Z,2.87
2019-04-23T14:05:57.886Z,3.00
2019-04-23T14:08:33.543Z,3.08
2019-04-23T14:10:44.878Z,3.33
2019-04-23T14:15:54.080Z,2.55
2019-04-23T14:18:43.556Z,3.35
2019-04-23T14:20:53.576Z,2.60
2019-04-23T14:23:39.565Z,2.70
2019-04-23T14:28:32.206Z,2.92
2019-04-23T14:33:40.143Z,3.10
2019-04-23T14:35:55.694Z,2.85
2019-04-23T14:41:14.928Z,2.70
2019-04-23T14:43:31.455Z,2.77
2019-04-23T14:48:46.621Z,3.10
2019-04-23T14:51:22.976Z,2.77
2019-04-23T14:53:42.624Z,3.50
2019-04-23T14:58:50.751Z,3.02
2019-04-23T15:01:28.609Z,3.30
2019-04-23T15:03:46.836Z,3.08
2019-04-23T15:11:27.560Z,3.22
2019-04-23T15:24:15.692Z,2.92
2019-04-23T15:28:49.094Z,2.92
2019-04-23T15:31:51.963Z,3.45
2019-04-23T15:36:58.214Z,3.40
2019-04-23T15:39:19.643Z,3.40
2019-04-23T15:41:54.378Z,3.35
2019-04-23T15:49:21.260Z,3.10
2019-04-23T15:54:17.874Z,3.50
2019-04-23T15:56:50.654Z,3.37
2019-04-23T15:59:35.010Z,4.03
2019-04-23T16:01:39.550Z,3.72
2019-04-23T16:03:51.264Z,3.00
2019-04-23T16:06:23.523Z,2.92
2019-04-23T16:09:09.615Z,3.33
2019-04-23T16:17:08.076Z,3.58
2019-04-23T16:19:24.464Z,3.33
2019-04-23T16:22:00.209Z,3.85
2019-04-23T16:24:22.166Z,4.03
2019-04-23T16:27:01.282Z,3.30
2019-04-23T16:29:53.768Z,3.40
2019-04-23T16:32:08.348Z,3.55
2019-04-23T16:35:08.872Z,3.62
2019-04-23T16:37:15.462Z,3.08
2019-04-23T16:39:55.927Z,3.50
2019-04-23T16:42:27.329Z,3.10
2019-04-23T16:45:07.530Z,3.65
2019-04-23T16:47:24.113Z,3.60
2019-04-23T16:49:57.566Z,3.50
2019-04-23T16:52:21.598Z,3.58
2019-04-23T16:54:55.091Z,3.20
2019-04-23T16:57:33.213Z,3.22
2019-04-23T17:00:07.643Z,3.52
2019-04-23T17:04:57.913Z,3.30
2019-04-23T17:07:21.030Z,2.35
2019-04-23T17:10:13.060Z,3.37
2019-04-23T17:12:21.073Z,3.12
2019-04-23T17:15:02.742Z,3.37
2019-04-23T17:17:25.435Z,2.70
2019-04-23T17:20:06.507Z,3.20
2019-04-23T17:22:24.667Z,2.85
2019-04-23T17:25:09.147Z,3.17
2019-04-23T17:27:28.151Z,2.90
2019-04-23T17:30:09.341Z,3.10
2019-04-23T17:32:28.223Z,3.62
2019-04-23T17:37:40.464Z,3.35
2019-04-23T17:45:32.442Z,3.05
2019-04-23T17:48:17.629Z,2.98
2019-04-23T17:56:01.527Z,3.08
2019-04-23T17:58:23.290Z,2.90
2019-04-23T18:01:11.358Z,3.12
2019-04-23T18:03:30.463Z,3.33
2019-04-23T18:06:15.752Z,3.27
2019-04-23T18:08:29.052Z,2.83
2019-04-23T18:11:13.107Z,3.42
2019-04-23T18:13:40.855Z,3.20
2019-04-23T18:16:13.758Z,3.33
2019-04-23T18:18:42.213Z,2.90
2019-04-23T18:21:21.322Z,3.58
2019-04-23T18:24:13.131Z,3.47
2019-04-23T18:26:46.200Z,3.30
2019-04-23T18:29:27.699Z,2.87
2019-04-23T18:32:06.247Z,3.20
2019-04-23T18:34:41.878Z,3.22
2019-04-23T18:37:09.201Z,3.60
2019-04-23T18:39:31.305Z,4.37
2019-04-23T18:42:11.630Z,3.62
2019-04-23T18:44:38.755Z,4.10
2019-04-23T18:47:08.504Z,3.50
2019-04-23T18:49:40.991Z,3.92
2019-04-23T18:52:04.724Z,3.20
2019-04-23T18:54:35.094Z,3.72
2019-04-23T18:59:47.408Z,3.30
2019-04-23T19:05:36.323Z,3.65
2019-04-23T19:10:53.718Z,3.30
2019-04-23T19:13:25.029Z,3.15
2019-04-23T19:15:45.870Z,3.50
2019-04-23T19:18:35.336Z,3.62
2019-04-23T19:26:09.260Z,3.10
2019-04-23T19:28:40.896Z,2.40
2019-04-23T19:36:49.196Z,2.60
2019-04-23T19:39:18.813Z,2.20
2019-04-23T19:41:55.682Z,2.40
2019-04-23T19:44:10.337Z,1.80
2019-04-23T19:46:54.914Z,1.80
2019-04-23T19:51:48.302Z,1.77
2019-04-23T19:54:34.259Z,2.00
2019-04-23T19:56:49.811Z,1.85
2019-04-23T19:59:13.478Z,1.90
2019-04-23T20:01:46.879Z,2.12
2019-04-23T20:04:16.387Z,2.37
2019-04-23T20:07:06.134Z,2.37
2019-04-23T20:14:18.395Z,1.98
2019-04-23T20:17:02.581Z,1.67
2019-04-23T20:19:18.495Z,1.27
2019-04-23T20:21:50.791Z,1.25
2019-04-23T20:26:59.791Z,1.70
2019-04-23T20:29:53.831Z,1.40
2019-04-23T20:37:17.806Z,1.52
2019-04-23T20:45:39.043Z,1.20
2019-04-23T20:52:10.579Z,1.30
2019-04-23T20:57:43.917Z,1.05
2019-04-23T21:00:08.696Z,0.90
2019-04-23T21:05:24.767Z,1.30
2019-04-23T21:10:27.665Z,1.30
2019-04-23T21:17:58.343Z,1.12
2019-04-23T21:28:14.227Z,1.20
2019-04-23T21:30:55.365Z,1.20
2019-04-23T21:36:18.378Z,1.20
2019-04-23T21:39:03.291Z,1.50
2019-04-23T21:41:45.157Z,1.80
2019-04-23T21:46:41.685Z,1.70
2019-04-23T21:51:46.324Z,2.20
2019-04-23T21:53:58.880Z,2.87
2019-04-23T21:56:39.707Z,3.63
2019-04-23T21:59:13.359Z,3.07
2019-04-23T22:06:43.434Z,3.37
2019-04-23T22:14:27.531Z,3.30
2019-04-23T22:19:14.943Z,3.80
2019-04-23T22:21:45.324Z,3.50
2019-04-23T22:26:38.177Z,3.73
2019-04-23T22:31:50.606Z,3.43
2019-04-23T22:34:17.060Z,3.67
2019-04-23T22:36:49.754Z,3.33
2019-04-23T22:39:17.691Z,3.83
2019-04-23T22:54:41.972Z,3.37
2019-04-23T22:56:56.652Z,3.30
2019-04-23T22:59:34.151Z,3.30
2019-04-23T23:02:37.158Z,3.27
2019-04-23T23:04:53.063Z,3.07
2019-04-23T23:07:24.268Z,2.77
2019-04-23T23:09:55.787Z,2.97
2019-04-23T23:12:22.974Z,3.37
2019-04-23T23:14:54.777Z,2.93
2019-04-23T23:17:22.727Z,2.80
2019-04-23T23:20:03.208Z,2.90
2019-04-23T23:22:24.128Z,2.57
2019-04-23T23:25:03.355Z,2.97
2019-04-23T23:27:16.229Z,2.47
2019-04-23T23:30:01.081Z,2.37
2019-04-23T23:32:22.999Z,2.23
2019-04-23T23:35:14.959Z,2.50
2019-04-23T23:37:19.156Z,2.37
2019-04-23T23:39:56.989Z,2.43
2019-04-23T23:47:24.287Z,2.03
2019-04-23T23:50:01.518Z,2.10
2019-04-23T23:52:32.915Z,2.00
2019-04-23T23:55:03.807Z,2.30
2019-04-23T23:57:24.708Z,1.73
